sensor_id;sensor_type;location;lat;lon;timestamp;pressure;altitude;pressure_sealevel;temperature;humidity
56070;BME280;41944;52.078;-0.058;2024-03-02T00:00:37;98890.85;;;4.59;100.00
56070;BME280;41944;52.078;-0.058;2024-03-02T00:03:07;98888.17;;;4.65;100.00
56070;BME280;41944;52.078;-0.058;2024-03-02T00:05:34;98894.24;;;4.67;100.00
56070;BME280;41944;52.078;-0.058;2024-03-02T00:08:01;98892.35;;;4.62;100.00
56070;BME280;41944;52.078;-0.058;2024-03-02T00:10:36;98890.17;;;4.60;100.00
56070;BME280;41944;52.078;-0.058;2024-03-02T00:13:03;98901.34;;;4.35;100.00
56070;BME280;41944;52.078;-0.058;2024-03-02T00:15:40;98900.18;;;4.39;100.00
56070;BME280;41944;52.078;-0.058;2024-03-02T00:18:09;98895.74;;;4.35;100.00
56070;BME280;41944;52.078;-0.058;2024-03-02T00:20:37;98889.93;;;4.09;100.00
56070;BME280;41944;52.078;-0.058;2024-03-02T00:23:05;98884.36;;;4.02;100.00
56070;BME280;41944;52.078;-0.058;2024-03-02T00:25:41;98886.40;;;4.10;100.00
56070;BME280;41944;52.078;-0.058;2024-03-02T00:28:16;98884.09;;;4.29;100.00
56070;BME280;41944;52.078;-0.058;2024-03-02T00:30:51;98885.23;;;4.28;100.00
56070;BME280;41944;52.078;-0.058;2024-03-02T00:33:20;98891.06;;;4.40;100.00
56070;BME280;41944;52.078;-0.058;2024-03-02T00:35:47;98886.73;;;4.62;100.00
56070;BME280;41944;52.078;-0.058;2024-03-02T00:38:14;98881.33;;;4.58;100.00
56070;BME280;41944;52.078;-0.058;2024-03-02T00:40:42;98881.86;;;4.65;100.00
56070;BME280;41944;52.078;-0.058;2024-03-02T00:43:31;98877.09;;;4.70;100.00
56070;BME280;41944;52.078;-0.058;2024-03-02T00:46:05;98876.80;;;4.65;100.00
56070;BME280;41944;52.078;-0.058;2024-03-02T00:48:33;98873.39;;;4.67;100.00
56070;BME280;41944;52.078;-0.058;2024-03-02T00:51:00;98875.37;;;4.54;100.00
56070;BME280;41944;52.078;-0.058;2024-03-02T00:53:27;98872.43;;;4.74;100.00
56070;BME280;41944;52.078;-0.058;2024-03-02T00:55:54;98874.97;;;4.57;100.00
56070;BME280;41944;52.078;-0.058;2024-03-02T00:58:21;98887.00;;;4.47;100.00
56070;BME280;41944;52.078;-0.058;2024-03-02T01:00:48;98883.69;;;4.57;100.00
56070;BME280;41944;52.078;-0.058;2024-03-02T01:03:15;98885.02;;;4.58;100.00
56070;BME280;41944;52.078;-0.058;2024-03-02T01:05:43;98887.13;;;4.39;100.00
56070;BME280;41944;52.078;-0.058;2024-03-02T01:08:10;98876.88;;;4.53;100.00
56070;BME280;41944;52.078;-0.058;2024-03-02T01:10:37;98882.96;;;4.33;100.00
56070;BME280;41944;52.078;-0.058;2024-03-02T01:13:04;98885.72;;;4.35;100.00
56070;BME280;41944;52.078;-0.058;2024-03-02T01:15:31;98887.52;;;4.45;100.00
56070;BME280;41944;52.078;-0.058;2024-03-02T01:17:58;98881.18;;;4.68;100.00
56070;BME280;41944;52.078;-0.058;2024-03-02T01:20:25;98879.15;;;4.75;100.00
56070;BME280;41944;52.078;-0.058;2024-03-02T01:22:52;98880.35;;;4.91;100.00
56070;BME280;41944;52.078;-0.058;2024-03-02T01:25:19;98867.57;;;5.03;100.00
56070;BME280;41944;52.078;-0.058;2024-03-02T01:27:46;98863.17;;;5.06;100.00
56070;BME280;41944;52.078;-0.058;2024-03-02T01:30:13;98857.07;;;5.08;100.00
56070;BME280;41944;52.078;-0.058;2024-03-02T01:32:40;98858.48;;;5.20;100.00
56070;BME280;41944;52.078;-0.058;2024-03-02T01:35:07;98853.89;;;5.28;100.00
56070;BME280;41944;52.078;-0.058;2024-03-02T01:37:35;98853.06;;;5.40;100.00
56070;BME280;41944;52.078;-0.058;2024-03-02T01:40:02;98847.02;;;5.50;100.00
56070;BME280;41944;52.078;-0.058;2024-03-02T01:42:29;98846.93;;;5.57;100.00
56070;BME280;41944;52.078;-0.058;2024-03-02T01:44:56;98845.61;;;5.67;99.76
56070;BME280;41944;52.078;-0.058;2024-03-02T01:47:23;98846.06;;;5.73;98.92
56070;BME280;41944;52.078;-0.058;2024-03-02T01:49:50;98848.23;;;5.79;98.29
56070;BME280;41944;52.078;-0.058;2024-03-02T01:52:17;98848.10;;;5.79;97.83
56070;BME280;41944;52.078;-0.058;2024-03-02T01:54:44;98852.92;;;5.80;98.04
56070;BME280;41944;52.078;-0.058;2024-03-02T01:57:11;98849.98;;;5.79;97.86
56070;BME280;41944;52.078;-0.058;2024-03-02T01:59:39;98844.03;;;5.79;98.89
56070;BME280;41944;52.078;-0.058;2024-03-02T02:02:06;98849.07;;;5.85;98.40
56070;BME280;41944;52.078;-0.058;2024-03-02T02:04:33;98846.84;;;6.04;98.84
56070;BME280;41944;52.078;-0.058;2024-03-02T02:07:00;98852.17;;;6.04;97.65
56070;BME280;41944;52.078;-0.058;2024-03-02T02:09:28;98853.16;;;5.99;96.12
56070;BME280;41944;52.078;-0.058;2024-03-02T02:11:55;98852.02;;;6.04;96.62
56070;BME280;41944;52.078;-0.058;2024-03-02T02:14:22;98848.80;;;6.06;96.83
56070;BME280;41944;52.078;-0.058;2024-03-02T02:16:48;98849.03;;;6.13;96.78
56070;BME280;41944;52.078;-0.058;2024-03-02T02:19:15;98849.14;;;6.24;96.63
56070;BME280;41944;52.078;-0.058;2024-03-02T02:21:42;98851.33;;;6.20;95.48
56070;BME280;41944;52.078;-0.058;2024-03-02T02:24:10;98844.80;;;6.20;95.18
56070;BME280;41944;52.078;-0.058;2024-03-02T02:26:36;98839.44;;;6.00;95.30
56070;BME280;41944;52.078;-0.058;2024-03-02T02:29:03;98834.34;;;5.84;95.82
56070;BME280;41944;52.078;-0.058;2024-03-02T02:31:37;98831.40;;;5.90;96.43
56070;BME280;41944;52.078;-0.058;2024-03-02T02:34:03;98820.70;;;6.00;97.23
56070;BME280;41944;52.078;-0.058;2024-03-02T02:36:30;98830.37;;;5.99;98.15
56070;BME280;41944;52.078;-0.058;2024-03-02T02:39:01;98830.56;;;6.02;98.66
56070;BME280;41944;52.078;-0.058;2024-03-02T02:41:29;98824.72;;;6.13;99.78
56070;BME280;41944;52.078;-0.058;2024-03-02T02:43:56;98827.51;;;6.22;100.00
56070;BME280;41944;52.078;-0.058;2024-03-02T02:46:24;98825.74;;;6.28;99.55
56070;BME280;41944;52.078;-0.058;2024-03-02T02:48:51;98826.24;;;6.36;99.98
56070;BME280;41944;52.078;-0.058;2024-03-02T02:51:18;98823.46;;;6.36;98.59
56070;BME280;41944;52.078;-0.058;2024-03-02T02:53:45;98818.76;;;6.23;99.07
56070;BME280;41944;52.078;-0.058;2024-03-02T02:56:12;98821.45;;;6.28;99.16
56070;BME280;41944;52.078;-0.058;2024-03-02T02:58:40;98825.39;;;6.19;99.20
56070;BME280;41944;52.078;-0.058;2024-03-02T03:01:07;98823.31;;;6.27;99.17
56070;BME280;41944;52.078;-0.058;2024-03-02T03:03:34;98827.12;;;5.98;99.87
56070;BME280;41944;52.078;-0.058;2024-03-02T03:06:02;98821.62;;;6.29;100.00
56070;BME280;41944;52.078;-0.058;2024-03-02T03:08:29;98817.66;;;6.35;99.34
56070;BME280;41944;52.078;-0.058;2024-03-02T03:10:56;98819.50;;;6.04;99.27
56070;BME280;41944;52.078;-0.058;2024-03-02T03:13:23;98809.97;;;5.89;100.00
56070;BME280;41944;52.078;-0.058;2024-03-02T03:15:50;98802.57;;;5.79;100.00
56070;BME280;41944;52.078;-0.058;2024-03-02T03:18:17;98797.92;;;5.61;100.00
56070;BME280;41944;52.078;-0.058;2024-03-02T03:20:44;98801.66;;;5.62;100.00
56070;BME280;41944;52.078;-0.058;2024-03-02T03:23:11;98803.80;;;5.46;100.00
56070;BME280;41944;52.078;-0.058;2024-03-02T03:25:37;98812.31;;;5.49;100.00
56070;BME280;41944;52.078;-0.058;2024-03-02T03:28:04;98805.65;;;5.39;100.00
56070;BME280;41944;52.078;-0.058;2024-03-02T03:30:31;98805.23;;;5.48;100.00
56070;BME280;41944;52.078;-0.058;2024-03-02T03:32:58;98808.73;;;5.88;100.00
56070;BME280;41944;52.078;-0.058;2024-03-02T03:35:25;98808.95;;;6.17;100.00
56070;BME280;41944;52.078;-0.058;2024-03-02T03:37:52;98806.08;;;6.37;100.00
56070;BME280;41944;52.078;-0.058;2024-03-02T03:40:19;98799.96;;;6.39;100.00
56070;BME280;41944;52.078;-0.058;2024-03-02T03:42:46;98792.33;;;6.23;100.00
56070;BME280;41944;52.078;-0.058;2024-03-02T03:45:13;98792.14;;;6.30;100.00
56070;BME280;41944;52.078;-0.058;2024-03-02T03:47:40;98793.62;;;5.87;100.00
56070;BME280;41944;52.078;-0.058;2024-03-02T03:50:07;98799.52;;;5.98;100.00
56070;BME280;41944;52.078;-0.058;2024-03-02T03:52:35;98793.21;;;5.89;100.00
56070;BME280;41944;52.078;-0.058;2024-03-02T03:55:02;98787.06;;;5.65;100.00
56070;BME280;41944;52.078;-0.058;2024-03-02T03:57:29;98782.25;;;5.86;100.00
56070;BME280;41944;52.078;-0.058;2024-03-02T03:59:56;98777.21;;;5.78;100.00
56070;BME280;41944;52.078;-0.058;2024-03-02T04:02:23;98773.14;;;5.63;100.00
56070;BME280;41944;52.078;-0.058;2024-03-02T04:04:50;98782.70;;;5.87;100.00
56070;BME280;41944;52.078;-0.058;2024-03-02T04:07:17;98784.08;;;5.57;100.00
56070;BME280;41944;52.078;-0.058;2024-03-02T04:09:44;98783.95;;;5.69;100.00
56070;BME280;41944;52.078;-0.058;2024-03-02T04:12:11;98783.39;;;5.56;100.00
56070;BME280;41944;52.078;-0.058;2024-03-02T04:14:38;98784.48;;;5.63;100.00
56070;BME280;41944;52.078;-0.058;2024-03-02T04:17:05;98782.46;;;5.45;100.00
56070;BME280;41944;52.078;-0.058;2024-03-02T04:19:32;98783.84;;;5.43;100.00
56070;BME280;41944;52.078;-0.058;2024-03-02T04:21:59;98777.08;;;5.51;100.00
56070;BME280;41944;52.078;-0.058;2024-03-02T04:24:25;98778.30;;;5.51;100.00
56070;BME280;41944;52.078;-0.058;2024-03-02T04:26:52;98777.90;;;5.88;100.00
56070;BME280;41944;52.078;-0.058;2024-03-02T04:29:19;98777.13;;;5.92;100.00
56070;BME280;41944;52.078;-0.058;2024-03-02T04:31:46;98775.19;;;5.83;100.00
56070;BME280;41944;52.078;-0.058;2024-03-02T04:34:13;98775.13;;;5.60;100.00
56070;BME280;41944;52.078;-0.058;2024-03-02T04:36:40;98768.84;;;5.67;100.00
56070;BME280;41944;52.078;-0.058;2024-03-02T04:39:07;98771.94;;;5.72;100.00
56070;BME280;41944;52.078;-0.058;2024-03-02T04:41:34;98769.53;;;5.90;100.00
56070;BME280;41944;52.078;-0.058;2024-03-02T04:44:01;98769.33;;;5.92;100.00
56070;BME280;41944;52.078;-0.058;2024-03-02T04:46:29;98767.31;;;5.82;100.00
56070;BME280;41944;52.078;-0.058;2024-03-02T04:48:56;98767.07;;;5.88;100.00
56070;BME280;41944;52.078;-0.058;2024-03-02T04:51:23;98764.49;;;5.84;100.00
56070;BME280;41944;52.078;-0.058;2024-03-02T04:53:50;98771.25;;;5.79;100.00
56070;BME280;41944;52.078;-0.058;2024-03-02T04:56:16;98769.95;;;5.75;100.00
56070;BME280;41944;52.078;-0.058;2024-03-02T04:58:43;98770.30;;;5.83;100.00
56070;BME280;41944;52.078;-0.058;2024-03-02T05:01:10;98767.70;;;5.78;100.00
56070;BME280;41944;52.078;-0.058;2024-03-02T05:03:37;98771.35;;;5.69;100.00
56070;BME280;41944;52.078;-0.058;2024-03-02T05:06:05;98774.88;;;5.79;100.00
56070;BME280;41944;52.078;-0.058;2024-03-02T05:08:31;98775.20;;;5.68;100.00
56070;BME280;41944;52.078;-0.058;2024-03-02T05:10:58;98785.29;;;5.79;100.00
56070;BME280;41944;52.078;-0.058;2024-03-02T05:13:25;98785.12;;;5.75;100.00
56070;BME280;41944;52.078;-0.058;2024-03-02T05:15:52;98779.47;;;5.74;100.00
56070;BME280;41944;52.078;-0.058;2024-03-02T05:18:19;98784.37;;;5.75;100.00
56070;BME280;41944;52.078;-0.058;2024-03-02T05:20:46;98788.17;;;5.80;100.00
56070;BME280;41944;52.078;-0.058;2024-03-02T05:23:13;98784.67;;;5.77;100.00
56070;BME280;41944;52.078;-0.058;2024-03-02T05:25:40;98781.08;;;5.79;100.00
56070;BME280;41944;52.078;-0.058;2024-03-02T05:28:07;98786.88;;;6.00;100.00
56070;BME280;41944;52.078;-0.058;2024-03-02T05:30:34;98780.06;;;6.13;100.00
56070;BME280;41944;52.078;-0.058;2024-03-02T05:33:01;98779.32;;;6.08;100.00
56070;BME280;41944;52.078;-0.058;2024-03-02T05:35:29;98780.44;;;6.12;100.00
56070;BME280;41944;52.078;-0.058;2024-03-02T05:37:55;98780.55;;;6.12;100.00
56070;BME280;41944;52.078;-0.058;2024-03-02T05:40:22;98780.04;;;6.17;100.00
56070;BME280;41944;52.078;-0.058;2024-03-02T05:42:49;98781.72;;;6.23;100.00
56070;BME280;41944;52.078;-0.058;2024-03-02T05:45:16;98775.16;;;6.25;100.00
56070;BME280;41944;52.078;-0.058;2024-03-02T05:47:43;98777.04;;;6.27;100.00
56070;BME280;41944;52.078;-0.058;2024-03-02T05:50:10;98774.67;;;6.34;100.00
56070;BME280;41944;52.078;-0.058;2024-03-02T05:52:37;98774.49;;;6.33;100.00
56070;BME280;41944;52.078;-0.058;2024-03-02T05:55:04;98768.99;;;6.30;100.00
56070;BME280;41944;52.078;-0.058;2024-03-02T05:57:32;98773.18;;;6.42;100.00
56070;BME280;41944;52.078;-0.058;2024-03-02T05:59:59;98771.31;;;6.50;100.00
56070;BME280;41944;52.078;-0.058;2024-03-02T06:02:26;98766.39;;;6.53;100.00
56070;BME280;41944;52.078;-0.058;2024-03-02T06:04:55;98767.91;;;6.55;100.00
56070;BME280;41944;52.078;-0.058;2024-03-02T06:07:22;98765.72;;;6.54;100.00
56070;BME280;41944;52.078;-0.058;2024-03-02T06:09:49;98775.11;;;6.37;100.00
56070;BME280;41944;52.078;-0.058;2024-03-02T06:12:16;98766.18;;;6.44;100.00
56070;BME280;41944;52.078;-0.058;2024-03-02T06:14:43;98763.25;;;6.42;100.00
56070;BME280;41944;52.078;-0.058;2024-03-02T06:17:10;98753.46;;;6.39;100.00
56070;BME280;41944;52.078;-0.058;2024-03-02T06:19:37;98753.42;;;6.53;100.00
56070;BME280;41944;52.078;-0.058;2024-03-02T06:22:04;98745.83;;;6.49;100.00
56070;BME280;41944;52.078;-0.058;2024-03-02T06:24:31;98741.77;;;6.37;100.00
56070;BME280;41944;52.078;-0.058;2024-03-02T06:26:58;98739.44;;;6.32;100.00
56070;BME280;41944;52.078;-0.058;2024-03-02T06:29:25;98729.88;;;6.37;100.00
56070;BME280;41944;52.078;-0.058;2024-03-02T06:31:52;98728.73;;;6.16;100.00
56070;BME280;41944;52.078;-0.058;2024-03-02T06:34:19;98734.35;;;6.11;100.00
56070;BME280;41944;52.078;-0.058;2024-03-02T06:36:46;98733.03;;;6.02;100.00
56070;BME280;41944;52.078;-0.058;2024-03-02T06:39:13;98735.32;;;5.92;100.00
56070;BME280;41944;52.078;-0.058;2024-03-02T06:41:40;98729.38;;;6.04;100.00
56070;BME280;41944;52.078;-0.058;2024-03-02T06:44:06;98723.22;;;6.02;100.00
56070;BME280;41944;52.078;-0.058;2024-03-02T06:46:33;98717.28;;;5.91;100.00
56070;BME280;41944;52.078;-0.058;2024-03-02T06:49:01;98723.60;;;5.94;100.00
56070;BME280;41944;52.078;-0.058;2024-03-02T06:51:28;98722.34;;;5.94;100.00
56070;BME280;41944;52.078;-0.058;2024-03-02T06:53:55;98721.50;;;6.05;100.00
56070;BME280;41944;52.078;-0.058;2024-03-02T06:56:22;98724.75;;;6.01;100.00
56070;BME280;41944;52.078;-0.058;2024-03-02T06:58:49;98723.49;;;6.10;100.00
56070;BME280;41944;52.078;-0.058;2024-03-02T07:01:16;98720.62;;;6.08;100.00
56070;BME280;41944;52.078;-0.058;2024-03-02T07:03:43;98722.08;;;6.03;100.00
56070;BME280;41944;52.078;-0.058;2024-03-02T07:06:10;98719.38;;;6.09;100.00
56070;BME280;41944;52.078;-0.058;2024-03-02T07:08:37;98714.04;;;6.00;100.00
56070;BME280;41944;52.078;-0.058;2024-03-02T07:11:04;98720.67;;;5.97;100.00
56070;BME280;41944;52.078;-0.058;2024-03-02T07:13:31;98715.15;;;6.10;100.00
56070;BME280;41944;52.078;-0.058;2024-03-02T07:15:58;98722.65;;;6.15;100.00
56070;BME280;41944;52.078;-0.058;2024-03-02T07:18:24;98719.34;;;6.31;100.00
56070;BME280;41944;52.078;-0.058;2024-03-02T07:20:51;98720.48;;;6.19;100.00
56070;BME280;41944;52.078;-0.058;2024-03-02T07:23:18;98720.12;;;6.39;100.00
56070;BME280;41944;52.078;-0.058;2024-03-02T07:25:45;98714.93;;;6.54;100.00
56070;BME280;41944;52.078;-0.058;2024-03-02T07:28:12;98719.19;;;6.68;100.00
56070;BME280;41944;52.078;-0.058;2024-03-02T07:30:39;98715.46;;;6.85;100.00
56070;BME280;41944;52.078;-0.058;2024-03-02T07:33:06;98717.92;;;6.92;100.00
56070;BME280;41944;52.078;-0.058;2024-03-02T07:35:33;98721.01;;;6.98;100.00
56070;BME280;41944;52.078;-0.058;2024-03-02T07:38:01;98727.61;;;7.16;100.00
56070;BME280;41944;52.078;-0.058;2024-03-02T07:40:28;98728.56;;;7.17;100.00
56070;BME280;41944;52.078;-0.058;2024-03-02T07:42:55;98727.94;;;7.26;100.00
56070;BME280;41944;52.078;-0.058;2024-03-02T07:45:22;98727.23;;;7.23;100.00
56070;BME280;41944;52.078;-0.058;2024-03-02T07:47:49;98724.00;;;7.27;100.00
56070;BME280;41944;52.078;-0.058;2024-03-02T07:50:16;98725.27;;;7.41;100.00
56070;BME280;41944;52.078;-0.058;2024-03-02T07:52:43;98726.42;;;7.48;100.00
56070;BME280;41944;52.078;-0.058;2024-03-02T07:55:10;98720.26;;;7.57;99.99
56070;BME280;41944;52.078;-0.058;2024-03-02T07:57:36;98725.13;;;7.62;99.03
56070;BME280;41944;52.078;-0.058;2024-03-02T08:00:04;98726.01;;;7.69;99.58
56070;BME280;41944;52.078;-0.058;2024-03-02T08:02:31;98725.37;;;7.87;99.31
56070;BME280;41944;52.078;-0.058;2024-03-02T08:04:59;98718.72;;;7.94;97.53
56070;BME280;41944;52.078;-0.058;2024-03-02T08:07:26;98717.87;;;7.92;97.12
56070;BME280;41944;52.078;-0.058;2024-03-02T08:09:53;98724.23;;;8.10;96.12
56070;BME280;41944;52.078;-0.058;2024-03-02T08:12:20;98725.13;;;8.00;96.44
56070;BME280;41944;52.078;-0.058;2024-03-02T08:14:47;98719.32;;;7.91;95.66
56070;BME280;41944;52.078;-0.058;2024-03-02T08:17:14;98715.60;;;8.02;95.85
56070;BME280;41944;52.078;-0.058;2024-03-02T08:19:41;98713.77;;;8.04;95.89
56070;BME280;41944;52.078;-0.058;2024-03-02T08:22:07;98713.25;;;8.08;94.93
56070;BME280;41944;52.078;-0.058;2024-03-02T08:24:34;98716.43;;;8.11;95.05
56070;BME280;41944;52.078;-0.058;2024-03-02T08:27:02;98713.29;;;8.26;94.18
56070;BME280;41944;52.078;-0.058;2024-03-02T08:29:29;98716.60;;;8.30;94.18
56070;BME280;41944;52.078;-0.058;2024-03-02T08:31:56;98721.12;;;8.37;93.44
56070;BME280;41944;52.078;-0.058;2024-03-02T08:34:23;98716.71;;;8.49;93.50
56070;BME280;41944;52.078;-0.058;2024-03-02T08:36:50;98716.17;;;8.51;93.13
56070;BME280;41944;52.078;-0.058;2024-03-02T08:39:17;98719.42;;;8.44;92.07
56070;BME280;41944;52.078;-0.058;2024-03-02T08:41:45;98727.44;;;8.43;92.35
56070;BME280;41944;52.078;-0.058;2024-03-02T08:44:13;98725.59;;;8.51;92.65
56070;BME280;41944;52.078;-0.058;2024-03-02T08:46:40;98731.21;;;8.40;92.45
56070;BME280;41944;52.078;-0.058;2024-03-02T08:49:08;98735.74;;;8.48;93.94
56070;BME280;41944;52.078;-0.058;2024-03-02T08:51:35;98740.73;;;8.64;94.63
56070;BME280;41944;52.078;-0.058;2024-03-02T08:54:02;98740.03;;;8.71;94.06
56070;BME280;41944;52.078;-0.058;2024-03-02T08:56:30;98732.51;;;8.76;93.41
56070;BME280;41944;52.078;-0.058;2024-03-02T08:58:58;98740.15;;;8.94;93.65
56070;BME280;41944;52.078;-0.058;2024-03-02T09:01:25;98746.48;;;9.01;93.72
56070;BME280;41944;52.078;-0.058;2024-03-02T09:03:52;98741.71;;;9.03;93.29
56070;BME280;41944;52.078;-0.058;2024-03-02T09:06:19;98749.55;;;9.15;93.54
56070;BME280;41944;52.078;-0.058;2024-03-02T09:08:46;98746.80;;;9.14;92.96
56070;BME280;41944;52.078;-0.058;2024-03-02T09:11:13;98745.23;;;9.32;93.35
56070;BME280;41944;52.078;-0.058;2024-03-02T09:13:40;98750.17;;;9.32;90.74
56070;BME280;41944;52.078;-0.058;2024-03-02T09:16:07;98752.26;;;9.22;90.25
56070;BME280;41944;52.078;-0.058;2024-03-02T09:18:33;98742.83;;;9.19;91.62
56070;BME280;41944;52.078;-0.058;2024-03-02T09:21:01;98744.08;;;9.16;91.98
56070;BME280;41944;52.078;-0.058;2024-03-02T09:23:28;98744.26;;;9.18;92.63
56070;BME280;41944;52.078;-0.058;2024-03-02T09:25:55;98756.73;;;9.13;92.47
56070;BME280;41944;52.078;-0.058;2024-03-02T09:28:22;98758.24;;;9.08;93.72
56070;BME280;41944;52.078;-0.058;2024-03-02T09:30:49;98758.02;;;9.02;92.65
56070;BME280;41944;52.078;-0.058;2024-03-02T09:33:16;98752.71;;;9.09;93.67
56070;BME280;41944;52.078;-0.058;2024-03-02T09:35:43;98753.26;;;9.24;94.83
56070;BME280;41944;52.078;-0.058;2024-03-02T09:38:10;98749.89;;;9.27;92.20
56070;BME280;41944;52.078;-0.058;2024-03-02T09:40:37;98749.04;;;9.41;91.97
56070;BME280;41944;52.078;-0.058;2024-03-02T09:43:04;98750.36;;;9.52;91.46
56070;BME280;41944;52.078;-0.058;2024-03-02T09:45:31;98753.88;;;9.46;91.05
56070;BME280;41944;52.078;-0.058;2024-03-02T09:47:58;98749.16;;;9.42;90.11
56070;BME280;41944;52.078;-0.058;2024-03-02T09:50:26;98753.99;;;9.32;90.21
56070;BME280;41944;52.078;-0.058;2024-03-02T09:52:53;98766.31;;;9.24;91.13
56070;BME280;41944;52.078;-0.058;2024-03-02T09:55:20;98766.56;;;9.23;90.48
56070;BME280;41944;52.078;-0.058;2024-03-02T09:57:47;98764.11;;;9.12;87.61
56070;BME280;41944;52.078;-0.058;2024-03-02T10:00:15;98769.33;;;9.06;87.85
56070;BME280;41944;52.078;-0.058;2024-03-02T10:02:42;98771.39;;;9.01;88.06
56070;BME280;41944;52.078;-0.058;2024-03-02T10:05:10;98781.05;;;8.94;89.05
56070;BME280;41944;52.078;-0.058;2024-03-02T10:07:36;98785.37;;;8.88;89.84
56070;BME280;41944;52.078;-0.058;2024-03-02T10:10:13;98786.70;;;8.80;91.27
56070;BME280;41944;52.078;-0.058;2024-03-02T10:12:41;98790.70;;;8.85;91.50
56070;BME280;41944;52.078;-0.058;2024-03-02T10:15:08;98772.55;;;8.83;90.65
56070;BME280;41944;52.078;-0.058;2024-03-02T10:17:36;98794.42;;;8.90;91.10
56070;BME280;41944;52.078;-0.058;2024-03-02T10:20:21;98799.72;;;8.87;90.67
56070;BME280;41944;52.078;-0.058;2024-03-02T10:22:48;98803.44;;;8.94;91.65
56070;BME280;41944;52.078;-0.058;2024-03-02T10:25:29;98807.91;;;8.93;91.36
56070;BME280;41944;52.078;-0.058;2024-03-02T10:27:57;98811.91;;;8.87;91.51
56070;BME280;41944;52.078;-0.058;2024-03-02T10:30:24;98803.49;;;8.88;90.94
56070;BME280;41944;52.078;-0.058;2024-03-02T10:32:53;98801.47;;;8.76;90.74
56070;BME280;41944;52.078;-0.058;2024-03-02T10:35:21;98801.01;;;8.75;91.09
56070;BME280;41944;52.078;-0.058;2024-03-02T10:37:48;98802.82;;;8.69;91.42
56070;BME280;41944;52.078;-0.058;2024-03-02T10:40:15;98796.68;;;8.79;92.92
56070;BME280;41944;52.078;-0.058;2024-03-02T10:42:43;98801.63;;;8.87;92.57
56070;BME280;41944;52.078;-0.058;2024-03-02T10:45:12;98802.07;;;8.90;92.21
56070;BME280;41944;52.078;-0.058;2024-03-02T10:47:42;98807.09;;;8.99;90.20
56070;BME280;41944;52.078;-0.058;2024-03-02T10:50:09;98803.89;;;8.94;89.91
56070;BME280;41944;52.078;-0.058;2024-03-02T10:52:36;98801.46;;;8.98;90.70
56070;BME280;41944;52.078;-0.058;2024-03-02T10:55:04;98803.70;;;8.99;89.78
56070;BME280;41944;52.078;-0.058;2024-03-02T10:57:40;98811.55;;;9.04;90.00
56070;BME280;41944;52.078;-0.058;2024-03-02T11:00:12;98811.53;;;9.06;90.68
56070;BME280;41944;52.078;-0.058;2024-03-02T11:02:41;98812.68;;;9.02;90.05
56070;BME280;41944;52.078;-0.058;2024-03-02T11:05:11;98807.97;;;8.96;89.62
56070;BME280;41944;52.078;-0.058;2024-03-02T11:07:39;98806.32;;;9.08;91.99
56070;BME280;41944;52.078;-0.058;2024-03-02T11:10:08;98808.59;;;9.35;92.70
56070;BME280;41944;52.078;-0.058;2024-03-02T11:12:39;98816.12;;;9.51;90.01
56070;BME280;41944;52.078;-0.058;2024-03-02T11:15:11;98817.32;;;9.64;89.14
56070;BME280;41944;52.078;-0.058;2024-03-02T11:17:45;98818.61;;;9.69;88.35
56070;BME280;41944;52.078;-0.058;2024-03-02T11:20:12;98825.42;;;9.66;88.32
56070;BME280;41944;52.078;-0.058;2024-03-02T11:22:40;98832.49;;;9.57;88.19
56070;BME280;41944;52.078;-0.058;2024-03-02T11:25:23;98833.79;;;9.17;88.26
56070;BME280;41944;52.078;-0.058;2024-03-02T11:28:06;98832.35;;;9.07;90.13
56070;BME280;41944;52.078;-0.058;2024-03-02T11:31:05;98836.92;;;8.93;90.44
56070;BME280;41944;52.078;-0.058;2024-03-02T11:33:32;98836.51;;;8.87;89.41
56070;BME280;41944;52.078;-0.058;2024-03-02T11:36:01;98830.08;;;8.69;90.36
56070;BME280;41944;52.078;-0.058;2024-03-02T11:38:29;98825.28;;;8.66;92.53
56070;BME280;41944;52.078;-0.058;2024-03-02T11:40:57;98827.59;;;8.68;93.45
56070;BME280;41944;52.078;-0.058;2024-03-02T11:43:28;98823.57;;;8.85;93.08
56070;BME280;41944;52.078;-0.058;2024-03-02T11:45:59;98825.66;;;9.06;94.29
56070;BME280;41944;52.078;-0.058;2024-03-02T11:48:27;98823.66;;;9.23;94.18
56070;BME280;41944;52.078;-0.058;2024-03-02T11:50:53;98827.77;;;9.23;91.84
56070;BME280;41944;52.078;-0.058;2024-03-02T11:53:26;98835.21;;;9.38;92.37
56070;BME280;41944;52.078;-0.058;2024-03-02T11:55:55;98836.38;;;9.47;91.72
56070;BME280;41944;52.078;-0.058;2024-03-02T11:58:23;98829.62;;;9.22;90.00
56070;BME280;41944;52.078;-0.058;2024-03-02T12:00:50;98818.24;;;9.17;91.69
56070;BME280;41944;52.078;-0.058;2024-03-02T12:03:21;98815.93;;;9.27;91.89
56070;BME280;41944;52.078;-0.058;2024-03-02T12:05:49;98814.05;;;9.35;92.16
56070;BME280;41944;52.078;-0.058;2024-03-02T12:08:16;98819.62;;;9.42;90.15
56070;BME280;41944;52.078;-0.058;2024-03-02T12:10:43;98824.37;;;9.44;89.40
56070;BME280;41944;52.078;-0.058;2024-03-02T12:13:22;98821.37;;;9.54;91.39
56070;BME280;41944;52.078;-0.058;2024-03-02T12:15:53;98821.15;;;9.70;91.52
56070;BME280;41944;52.078;-0.058;2024-03-02T12:18:20;98823.58;;;9.76;90.16
56070;BME280;41944;52.078;-0.058;2024-03-02T12:20:48;98822.83;;;9.63;89.43
56070;BME280;41944;52.078;-0.058;2024-03-02T12:23:16;98823.49;;;9.59;89.71
56070;BME280;41944;52.078;-0.058;2024-03-02T12:25:44;98815.85;;;9.57;89.08
56070;BME280;41944;52.078;-0.058;2024-03-02T12:28:11;98808.13;;;9.70;90.89
56070;BME280;41944;52.078;-0.058;2024-03-02T12:30:38;98803.00;;;9.94;91.34
56070;BME280;41944;52.078;-0.058;2024-03-02T12:33:06;98804.60;;;10.23;91.43
56070;BME280;41944;52.078;-0.058;2024-03-02T12:35:33;98812.09;;;10.37;89.86
56070;BME280;41944;52.078;-0.058;2024-03-02T12:38:00;98817.57;;;10.32;86.80
56070;BME280;41944;52.078;-0.058;2024-03-02T12:40:27;98822.42;;;10.28;86.09
56070;BME280;41944;52.078;-0.058;2024-03-02T12:42:54;98826.19;;;10.32;86.52
56070;BME280;41944;52.078;-0.058;2024-03-02T12:45:20;98829.21;;;10.32;85.83
56070;BME280;41944;52.078;-0.058;2024-03-02T12:47:47;98829.19;;;10.34;85.72
56070;BME280;41944;52.078;-0.058;2024-03-02T12:50:15;98829.85;;;10.35;86.03
56070;BME280;41944;52.078;-0.058;2024-03-02T12:52:42;98832.09;;;10.15;85.06
56070;BME280;41944;52.078;-0.058;2024-03-02T12:55:09;98831.96;;;10.05;87.33
56070;BME280;41944;52.078;-0.058;2024-03-02T12:57:37;98830.94;;;9.99;86.72